sensor_id;sensor_type;location;lat;lon;timestamp;temperature;humidity
41944;DHT22;27636;52.610;13.244;2023-07-22T00:02:04;12.80;99.90
41944;DHT22;27636;52.610;13.244;2023-07-22T00:07:07;12.80;99.90
41944;DHT22;27636;52.610;13.244;2023-07-22T00:12:12;12.90;99.90
41944;DHT22;27636;52.610;13.244;2023-07-22T00:17:16;12.90;99.90
41944;DHT22;27636;52.610;13.244;2023-07-22T00:22:21;13.20;99.90
41944;DHT22;27636;52.610;13.244;2023-07-22T00:27:29;13.40;99.90
41944;DHT22;27636;52.610;13.244;2023-07-22T00:32:34;13.50;99.90
41944;DHT22;27636;52.610;13.244;2023-07-22T00:37:41;13.40;99.90
41944;DHT22;27636;52.610;13.244;2023-07-22T00:42:46;13.70;99.90
41944;DHT22;27636;52.610;13.244;2023-07-22T00:47:52;13.70;99.90
41944;DHT22;27636;52.610;13.244;2023-07-22T00:52:56;13.70;99.90
41944;DHT22;27636;52.610;13.244;2023-07-22T00:58:01;13.70;99.90
41944;DHT22;27636;52.610;13.244;2023-07-22T01:03:06;13.70;99.90
41944;DHT22;27636;52.610;13.244;2023-07-22T01:08:11;13.70;99.90
41944;DHT22;27636;52.610;13.244;2023-07-22T01:13:16;13.70;99.90
41944;DHT22;27636;52.610;13.244;2023-07-22T01:18:20;13.70;99.90
41944;DHT22;27636;52.610;13.244;2023-07-22T01:23:25;13.80;99.90
41944;DHT22;27636;52.610;13.244;2023-07-22T01:28:28;13.80;99.90
41944;DHT22;27636;52.610;13.244;2023-07-22T01:33:32;13.90;99.90
41944;DHT22;27636;52.610;13.244;2023-07-22T01:38:37;13.80;99.90
41944;DHT22;27636;52.610;13.244;2023-07-22T01:43:40;13.90;99.90
41944;DHT22;27636;52.610;13.244;2023-07-22T01:48:44;13.90;99.90
41944;DHT22;27636;52.610;13.244;2023-07-22T01:53:48;13.90;99.90
41944;DHT22;27636;52.610;13.244;2023-07-22T01:58:53;14.00;99.90
41944;DHT22;27636;52.610;13.244;2023-07-22T02:03:56;14.10;99.90
41944;DHT22;27636;52.610;13.244;2023-07-22T02:09:01;14.00;99.90
41944;DHT22;27636;52.610;13.244;2023-07-22T02:14:11;14.10;99.90
41944;DHT22;27636;52.610;13.244;2023-07-22T02:19:16;13.80;99.90
41944;DHT22;27636;52.610;13.244;2023-07-22T02:24:21;13.80;99.90
41944;DHT22;27636;52.610;13.244;2023-07-22T02:29:26;13.80;99.90
41944;DHT22;27636;52.610;13.244;2023-07-22T02:34:29;13.70;99.90
41944;DHT22;27636;52.610;13.244;2023-07-22T02:39:35;13.60;99.90
41944;DHT22;27636;52.610;13.244;2023-07-22T02:44:38;13.50;99.90
41944;DHT22;27636;52.610;13.244;2023-07-22T02:49:42;13.40;99.90
41944;DHT22;27636;52.610;13.244;2023-07-22T02:55:04;13.30;99.90
41944;DHT22;27636;52.610;13.244;2023-07-22T03:00:09;13.30;99.90
41944;DHT22;27636;52.610;13.244;2023-07-22T03:05:16;13.30;99.90
41944;DHT22;27636;52.610;13.244;2023-07-22T03:10:21;13.20;99.90
41944;DHT22;27636;52.610;13.244;2023-07-22T03:15:25;13.40;99.90
41944;DHT22;27636;52.610;13.244;2023-07-22T03:20:29;13.40;99.90
41944;DHT22;27636;52.610;13.244;2023-07-22T03:25:35;13.30;99.90
41944;DHT22;27636;52.610;13.244;2023-07-22T03:30:39;13.30;99.90
41944;DHT22;27636;52.610;13.244;2023-07-22T03:35:43;13.20;99.90
41944;DHT22;27636;52.610;13.244;2023-07-22T03:40:47;13.20;99.90
41944;DHT22;27636;52.610;13.244;2023-07-22T03:45:51;13.00;99.90
41944;DHT22;27636;52.610;13.244;2023-07-22T03:50:55;12.90;99.90
41944;DHT22;27636;52.610;13.244;2023-07-22T03:56:16;12.90;99.90
41944;DHT22;27636;52.610;13.244;2023-07-22T04:01:20;13.00;99.90
41944;DHT22;27636;52.610;13.244;2023-07-22T04:06:24;13.10;99.90
41944;DHT22;27636;52.610;13.244;2023-07-22T04:11:29;13.00;99.90
41944;DHT22;27636;52.610;13.244;2023-07-22T04:16:33;13.20;99.90
41944;DHT22;27636;52.610;13.244;2023-07-22T04:21:38;13.20;99.90
41944;DHT22;27636;52.610;13.244;2023-07-22T04:26:43;13.40;99.90
41944;DHT22;27636;52.610;13.244;2023-07-22T04:31:47;13.40;99.90
41944;DHT22;27636;52.610;13.244;2023-07-22T04:36:51;13.50;99.90
41944;DHT22;27636;52.610;13.244;2023-07-22T04:41:56;13.60;99.90
41944;DHT22;27636;52.610;13.244;2023-07-22T04:46:59;13.90;99.90
41944;DHT22;27636;52.610;13.244;2023-07-22T04:52:04;14.00;99.90
41944;DHT22;27636;52.610;13.244;2023-07-22T04:57:09;14.10;99.90
41944;DHT22;27636;52.610;13.244;2023-07-22T05:02:13;15.00;99.90
41944;DHT22;27636;52.610;13.244;2023-07-22T05:07:17;16.30;99.90
41944;DHT22;27636;52.610;13.244;2023-07-22T05:12:21;17.60;99.90
41944;DHT22;27636;52.610;13.244;2023-07-22T05:17:25;18.50;99.90
41944;DHT22;27636;52.610;13.244;2023-07-22T05:22:29;19.30;99.90
41944;DHT22;27636;52.610;13.244;2023-07-22T05:27:34;19.90;99.90
41944;DHT22;27636;52.610;13.244;2023-07-22T05:32:37;20.30;99.90
41944;DHT22;27636;52.610;13.244;2023-07-22T05:37:41;20.70;99.90
41944;DHT22;27636;52.610;13.244;2023-07-22T05:42:46;20.50;99.90
41944;DHT22;27636;52.610;13.244;2023-07-22T05:47:50;20.80;99.90
41944;DHT22;27636;52.610;13.244;2023-07-22T05:52:53;21.30;99.90
41944;DHT22;27636;52.610;13.244;2023-07-22T05:57:58;21.90;99.90
41944;DHT22;27636;52.610;13.244;2023-07-22T06:03:03;21.90;99.90
41944;DHT22;27636;52.610;13.244;2023-07-22T06:08:08;22.50;99.90
41944;DHT22;27636;52.610;13.244;2023-07-22T06:13:13;23.30;99.90
41944;DHT22;27636;52.610;13.244;2023-07-22T06:18:17;23.40;98.50
41944;DHT22;27636;52.610;13.244;2023-07-22T06:23:21;23.30;98.00
41944;DHT22;27636;52.610;13.244;2023-07-22T06:28:26;23.40;97.30
41944;DHT22;27636;52.610;13.244;2023-07-22T06:33:30;24.00;93.60
41944;DHT22;27636;52.610;13.244;2023-07-22T06:38:33;23.60;94.60
41944;DHT22;27636;52.610;13.244;2023-07-22T06:43:38;24.40;92.00
41944;DHT22;27636;52.610;13.244;2023-07-22T06:48:41;23.70;92.10
41944;DHT22;27636;52.610;13.244;2023-07-22T06:53:45;23.50;93.00
41944;DHT22;27636;52.610;13.244;2023-07-22T06:58:50;23.50;93.50
41944;DHT22;27636;52.610;13.244;2023-07-22T07:03:54;22.30;94.40
41944;DHT22;27636;52.610;13.244;2023-07-22T07:08:59;22.20;94.30
41944;DHT22;27636;52.610;13.244;2023-07-22T07:14:04;23.20;92.20
41944;DHT22;27636;52.610;13.244;2023-07-22T07:19:08;24.00;90.00
41944;DHT22;27636;52.610;13.244;2023-07-22T07:24:12;23.00;92.80
41944;DHT22;27636;52.610;13.244;2023-07-22T07:29:17;23.20;91.80
41944;DHT22;27636;52.610;13.244;2023-07-22T07:34:41;23.50;91.20
41944;DHT22;27636;52.610;13.244;2023-07-22T07:39:44;23.20;89.40
41944;DHT22;27636;52.610;13.244;2023-07-22T07:44:49;23.50;88.70
41944;DHT22;27636;52.610;13.244;2023-07-22T07:49:53;24.10;90.40
41944;DHT22;27636;52.610;13.244;2023-07-22T07:54:57;23.10;90.50
41944;DHT22;27636;52.610;13.244;2023-07-22T08:00:03;22.80;88.70
41944;DHT22;27636;52.610;13.244;2023-07-22T08:05:07;22.30;90.00
41944;DHT22;27636;52.610;13.244;2023-07-22T08:10:15;21.90;91.10
41944;DHT22;27636;52.610;13.244;2023-07-22T08:15:21;21.80;91.90
41944;DHT22;27636;52.610;13.244;2023-07-22T08:20:24;23.60;86.50
41944;DHT22;27636;52.610;13.244;2023-07-22T08:25:28;24.40;83.30
41944;DHT22;27636;52.610;13.244;2023-07-22T08:30:33;24.20;81.30
41944;DHT22;27636;52.610;13.244;2023-07-22T08:35:37;23.00;84.40
41944;DHT22;27636;52.610;13.244;2023-07-22T08:40:41;22.30;87.80
41944;DHT22;27636;52.610;13.244;2023-07-22T08:45:47;22.60;83.90
41944;DHT22;27636;52.610;13.244;2023-07-22T08:50:54;22.40;85.00
41944;DHT22;27636;52.610;13.244;2023-07-22T08:55:58;21.60;87.90
41944;DHT22;27636;52.610;13.244;2023-07-22T09:01:03;22.60;86.60
41944;DHT22;27636;52.610;13.244;2023-07-22T09:06:08;22.90;84.90
41944;DHT22;27636;52.610;13.244;2023-07-22T09:11:12;24.30;81.00
41944;DHT22;27636;52.610;13.244;2023-07-22T09:16:18;24.40;77.10
41944;DHT22;27636;52.610;13.244;2023-07-22T09:21:22;26.40;71.40
41944;DHT22;27636;52.610;13.244;2023-07-22T09:26:26;24.80;75.10
41944;DHT22;27636;52.610;13.244;2023-07-22T09:31:31;24.50;75.10
41944;DHT22;27636;52.610;13.244;2023-07-22T09:36:49;24.80;78.40
41944;DHT22;27636;52.610;13.244;2023-07-22T09:41:53;26.50;72.10
41944;DHT22;27636;52.610;13.244;2023-07-22T09:46:59;25.10;70.60
41944;DHT22;27636;52.610;13.244;2023-07-22T09:52:10;23.90;77.60
41944;DHT22;27636;52.610;13.244;2023-07-22T09:57:16;23.30;79.80
41944;DHT22;27636;52.610;13.244;2023-07-22T10:02:22;22.90;77.90
41944;DHT22;27636;52.610;13.244;2023-07-22T10:07:26;22.20;80.50
41944;DHT22;27636;52.610;13.244;2023-07-22T10:12:30;22.10;80.70
41944;DHT22;27636;52.610;13.244;2023-07-22T10:17:36;22.90;81.20
41944;DHT22;27636;52.610;13.244;2023-07-22T10:22:39;24.10;74.10
41944;DHT22;27636;52.610;13.244;2023-07-22T10:27:45;26.00;73.00
41944;DHT22;27636;52.610;13.244;2023-07-22T10:32:52;27.10;67.40
41944;DHT22;27636;52.610;13.244;2023-07-22T10:37:56;26.80;63.00
41944;DHT22;27636;52.610;13.244;2023-07-22T10:43:03;26.10;66.50
41944;DHT22;27636;52.610;13.244;2023-07-22T10:48:10;26.60;63.10
41944;DHT22;27636;52.610;13.244;2023-07-22T10:53:20;26.90;63.10
41944;DHT22;27636;52.610;13.244;2023-07-22T10:58:24;26.50;59.90
41944;DHT22;27636;52.610;13.244;2023-07-22T11:03:29;25.90;63.20
41944;DHT22;27636;52.610;13.244;2023-07-22T11:08:37;24.90;64.30
41944;DHT22;27636;52.610;13.244;2023-07-22T11:13:41;26.20;60.20
41944;DHT22;27636;52.610;13.244;2023-07-22T11:18:47;25.80;60.20
41944;DHT22;27636;52.610;13.244;2023-07-22T11:23:51;26.50;63.40
41944;DHT22;27636;52.610;13.244;2023-07-22T11:28:55;26.50;58.40
41944;DHT22;27636;52.610;13.244;2023-07-22T11:34:01;27.10;58.40
41944;DHT22;27636;52.610;13.244;2023-07-22T11:39:07;27.30;57.40
41944;DHT22;27636;52.610;13.244;2023-07-22T11:44:13;28.10;59.90
41944;DHT22;27636;52.610;13.244;2023-07-22T11:49:28;28.00;55.50
41944;DHT22;27636;52.610;13.244;2023-07-22T11:54:35;26.70;55.20
41944;DHT22;27636;52.610;13.244;2023-07-22T11:59:43;25.70;58.40
41944;DHT22;27636;52.610;13.244;2023-07-22T12:04:53;24.60;60.70
41944;DHT22;27636;52.610;13.244;2023-07-22T12:09:59;25.30;60.00
41944;DHT22;27636;52.610;13.244;2023-07-22T12:15:08;24.60;60.00
41944;DHT22;27636;52.610;13.244;2023-07-22T12:20:15;24.10;61.20
41944;DHT22;27636;52.610;13.244;2023-07-22T12:25:18;23.90;63.30
41944;DHT22;27636;52.610;13.244;2023-07-22T12:30:22;23.60;64.30
41944;DHT22;27636;52.610;13.244;2023-07-22T12:35:29;23.70;67.00
41944;DHT22;27636;52.610;13.244;2023-07-22T12:40:32;23.90;66.90
41944;DHT22;27636;52.610;13.244;2023-07-22T12:45:36;24.10;66.10
41944;DHT22;27636;52.610;13.244;2023-07-22T12:50:41;24.70;65.40
41944;DHT22;27636;52.610;13.244;2023-07-22T12:55:45;24.30;67.40
41944;DHT22;27636;52.610;13.244;2023-07-22T13:00:48;25.40;63.70
41944;DHT22;27636;52.610;13.244;2023-07-22T13:05:55;26.70;64.60
41944;DHT22;27636;52.610;13.244;2023-07-22T13:10:59;27.60;57.10
41944;DHT22;27636;52.610;13.244;2023-07-22T13:16:03;27.30;58.30
41944;DHT22;27636;52.610;13.244;2023-07-22T13:21:09;27.60;56.60
41944;DHT22;27636;52.610;13.244;2023-07-22T13:26:15;26.40;57.40
41944;DHT22;27636;52.610;13.244;2023-07-22T13:31:19;25.70;61.00
41944;DHT22;27636;52.610;13.244;2023-07-22T13:36:24;25.50;59.80
41944;DHT22;27636;52.610;13.244;2023-07-22T13:41:28;24.40;61.80
41944;DHT22;27636;52.610;13.244;2023-07-22T13:46:32;23.70;65.80
41944;DHT22;27636;52.610;13.244;2023-07-22T13:51:41;23.30;68.80
41944;DHT22;27636;52.610;13.244;2023-07-22T13:56:45;23.20;69.30
41944;DHT22;27636;52.610;13.244;2023-07-22T14:01:51;23.70;67.40
41944;DHT22;27636;52.610;13.244;2023-07-22T14:06:57;23.70;67.20
41944;DHT22;27636;52.610;13.244;2023-07-22T14:12:00;24.20;66.90
41944;DHT22;27636;52.610;13.244;2023-07-22T14:17:04;24.60;62.80
41944;DHT22;27636;52.610;13.244;2023-07-22T14:22:10;24.30;64.00
41944;DHT22;27636;52.610;13.244;2023-07-22T14:27:14;23.70;64.20
41944;DHT22;27636;52.610;13.244;2023-07-22T14:32:18;23.40;67.30
41944;DHT22;27636;52.610;13.244;2023-07-22T14:37:27;23.60;66.50
41944;DHT22;27636;52.610;13.244;2023-07-22T14:42:32;24.10;68.70
41944;DHT22;27636;52.610;13.244;2023-07-22T14:47:36;23.80;65.50
41944;DHT22;27636;52.610;13.244;2023-07-22T14:52:40;23.20;70.00
41944;DHT22;27636;52.610;13.244;2023-07-22T14:57:46;22.90;70.20
41944;DHT22;27636;52.610;13.244;2023-07-22T15:02:51;22.40;75.20
41944;DHT22;27636;52.610;13.244;2023-07-22T15:07:56;22.40;73.90
41944;DHT22;27636;52.610;13.244;2023-07-22T15:13:00;23.00;71.00
41944;DHT22;27636;52.610;13.244;2023-07-22T15:18:04;23.40;71.10
41944;DHT22;27636;52.610;13.244;2023-07-22T15:23:10;23.40;70.20
41944;DHT22;27636;52.610;13.244;2023-07-22T15:28:14;23.30;69.40
41944;DHT22;27636;52.610;13.244;2023-07-22T15:33:18;23.20;68.60
41944;DHT22;27636;52.610;13.244;2023-07-22T15:38:24;24.00;66.80
41944;DHT22;27636;52.610;13.244;2023-07-22T15:43:29;24.20;65.40
41944;DHT22;27636;52.610;13.244;2023-07-22T15:48:32;24.50;67.20
41944;DHT22;27636;52.610;13.244;2023-07-22T15:53:38;25.00;65.40
41944;DHT22;27636;52.610;13.244;2023-07-22T15:58:42;25.20;63.40
41944;DHT22;27636;52.610;13.244;2023-07-22T16:03:46;25.20;63.70
41944;DHT22;27636;52.610;13.244;2023-07-22T16:08:53;25.40;63.60
41944;DHT22;27636;52.610;13.244;2023-07-22T16:13:57;25.30;64.40
41944;DHT22;27636;52.610;13.244;2023-07-22T16:19:01;24.90;64.50
41944;DHT22;27636;52.610;13.244;2023-07-22T16:24:07;24.50;63.80
41944;DHT22;27636;52.610;13.244;2023-07-22T16:29:11;24.50;66.00
41944;DHT22;27636;52.610;13.244;2023-07-22T16:34:18;24.40;67.60
41944;DHT22;27636;52.610;13.244;2023-07-22T16:39:24;23.40;71.90
41944;DHT22;27636;52.610;13.244;2023-07-22T16:44:27;22.90;72.10
41944;DHT22;27636;52.610;13.244;2023-07-22T16:49:32;22.50;72.30
41944;DHT22;27636;52.610;13.244;2023-07-22T16:54:37;22.30;75.80
41944;DHT22;27636;52.610;13.244;2023-07-22T16:59:42;22.20;77.10
41944;DHT22;27636;52.610;13.244;2023-07-22T17:04:46;22.30;76.90
41944;DHT22;27636;52.610;13.244;2023-07-22T17:09:51;22.30;73.70
41944;DHT22;27636;52.610;13.244;2023-07-22T17:14:55;22.20;73.30
41944;DHT22;27636;52.610;13.244;2023-07-22T17:19:59;22.20;75.30
41944;DHT22;27636;52.610;13.244;2023-07-22T17:25:05;22.30;79.70
41944;DHT22;27636;52.610;13.244;2023-07-22T17:30:10;22.20;76.80
41944;DHT22;27636;52.610;13.244;2023-07-22T17:35:14;22.10;77.40
41944;DHT22;27636;52.610;13.244;2023-07-22T17:40:19;21.90;76.20
41944;DHT22;27636;52.610;13.244;2023-07-22T17:45:29;21.70;77.00
41944;DHT22;27636;52.610;13.244;2023-07-22T17:50:33;21.40;79.70
41944;DHT22;27636;52.610;13.244;2023-07-22T17:55:39;21.00;84.00
41944;DHT22;27636;52.610;13.244;2023-07-22T18:00:43;20.50;87.60
41944;DHT22;27636;52.610;13.244;2023-07-22T18:05:47;20.10;90.10
41944;DHT22;27636;52.610;13.244;2023-07-22T18:10:53;19.60;91.20
41944;DHT22;27636;52.610;13.244;2023-07-22T18:15:58;19.20;91.70
41944;DHT22;27636;52.610;13.244;2023-07-22T18:21:02;19.10;93.20
41944;DHT22;27636;52.610;13.244;2023-07-22T18:26:08;18.70;95.50
41944;DHT22;27636;52.610;13.244;2023-07-22T18:31:11;18.70;97.50
41944;DHT22;27636;52.610;13.244;2023-07-22T18:36:17;18.70;99.50
41944;DHT22;27636;52.610;13.244;2023-07-22T18:41:23;18.60;99.90
41944;DHT22;27636;52.610;13.244;2023-07-22T18:46:26;18.70;99.90
41944;DHT22;27636;52.610;13.244;2023-07-22T18:51:30;18.50;99.90
41944;DHT22;27636;52.610;13.244;2023-07-22T18:56:38;18.20;99.90
41944;DHT22;27636;52.610;13.244;2023-07-22T19:01:41;18.00;99.90
41944;DHT22;27636;52.610;13.244;2023-07-22T19:06:45;17.70;99.90
41944;DHT22;27636;52.610;13.244;2023-07-22T19:11:51;17.30;99.90
41944;DHT22;27636;52.610;13.244;2023-07-22T19:16:55;17.40;99.90
41944;DHT22;27636;52.610;13.244;2023-07-22T19:21:59;17.30;99.90
41944;DHT22;27636;52.610;13.244;2023-07-22T19:27:05;17.10;99.90
41944;DHT22;27636;52.610;13.244;2023-07-22T19:32:09;17.00;99.90
41944;DHT22;27636;52.610;13.244;2023-07-22T19:37:13;17.00;99.90
41944;DHT22;27636;52.610;13.244;2023-07-22T19:42:18;16.70;99.90
41944;DHT22;27636;52.610;13.244;2023-07-22T19:47:25;16.70;99.90
41944;DHT22;27636;52.610;13.244;2023-07-22T19:52:30;16.70;99.90
41944;DHT22;27636;52.610;13.244;2023-07-22T19:57:35;16.80;99.90
41944;DHT22;27636;52.610;13.244;2023-07-22T20:02:39;16.70;99.90
41944;DHT22;27636;52.610;13.244;2023-07-22T20:07:43;16.50;99.90
41944;DHT22;27636;52.610;13.244;2023-07-22T20:12:48;16.40;99.90
41944;DHT22;27636;52.610;13.244;2023-07-22T20:17:53;16.30;99.90
41944;DHT22;27636;52.610;13.244;2023-07-22T20:22:57;16.40;99.90
41944;DHT22;27636;52.610;13.244;2023-07-22T20:28:02;16.70;99.90
41944;DHT22;27636;52.610;13.244;2023-07-22T20:33:06;16.60;99.90
41944;DHT22;27636;52.610;13.244;2023-07-22T20:38:09;16.50;99.90
41944;DHT22;27636;52.610;13.244;2023-07-22T20:43:15;16.50;99.90
41944;DHT22;27636;52.610;13.244;2023-07-22T20:48:20;16.50;99.90
41944;DHT22;27636;52.610;13.244;2023-07-22T20:53:24;16.60;99.90
41944;DHT22;27636;52.610;13.244;2023-07-22T20:58:35;16.70;99.90
41944;DHT22;27636;52.610;13.244;2023-07-22T21:03:38;16.60;99.90
41944;DHT22;27636;52.610;13.244;2023-07-22T21:08:43;16.50;99.90
41944;DHT22;27636;52.610;13.244;2023-07-22T21:13:49;16.50;99.90
41944;DHT22;27636;52.610;13.244;2023-07-22T21:18:52;16.30;99.90
41944;DHT22;27636;52.610;13.244;2023-07-22T21:23:56;16.20;99.90
41944;DHT22;27636;52.610;13.244;2023-07-22T21:29:01;16.30;99.90
41944;DHT22;27636;52.610;13.244;2023-07-22T21:34:05;16.20;99.90
41944;DHT22;27636;52.610;13.244;2023-07-22T21:39:18;16.30;99.90
41944;DHT22;27636;52.610;13.244;2023-07-22T21:44:23;16.30;99.90
41944;DHT22;27636;52.610;13.244;2023-07-22T21:49:27;16.30;99.90
41944;DHT22;27636;52.610;13.244;2023-07-22T21:54:30;16.40;99.90
41944;DHT22;27636;52.610;13.244;2023-07-22T21:59:35;16.40;99.90
41944;DHT22;27636;52.610;13.244;2023-07-22T22:04:39;16.40;99.90
41944;DHT22;27636;52.610;13.244;2023-07-22T22:09:42;16.30;99.90
41944;DHT22;27636;52.610;13.244;2023-07-22T22:14:51;16.30;99.90
41944;DHT22;27636;52.610;13.244;2023-07-22T22:19:56;16.20;99.90
41944;DHT22;27636;52.610;13.244;2023-07-22T22:25:00;16.20;99.90
41944;DHT22;27636;52.610;13.244;2023-07-22T22:30:07;16.30;99.90
41944;DHT22;27636;52.610;13.244;2023-07-22T22:35:12;16.30;99.90
41944;DHT22;27636;52.610;13.244;2023-07-22T22:40:15;16.30;99.90
41944;DHT22;27636;52.610;13.244;2023-07-22T22:45:21;16.40;99.90
41944;DHT22;27636;52.610;13.244;2023-07-22T22:50:25;16.50;99.90
41944;DHT22;27636;52.610;13.244;2023-07-22T22:55:30;16.40;99.90
41944;DHT22;27636;52.610;13.244;2023-07-22T23:00:39;16.20;99.90
41944;DHT22;27636;52.610;13.244;2023-07-22T23:05:42;16.20;99.90
41944;DHT22;27636;52.610;13.244;2023-07-22T23:10:46;16.30;99.90
41944;DHT22;27636;52.610;13.244;2023-07-22T23:15:51;16.50;99.90
41944;DHT22;27636;52.610;13.244;2023-07-22T23:20:55;16.80;99.90
41944;DHT22;27636;52.610;13.244;2023-07-22T23:25:59;17.10;99.90
41944;DHT22;27636;52.610;13.244;2023-07-22T23:31:04;17.20;99.90
41944;DHT22;27636;52.610;13.244;2023-07-22T23:36:08;17.10;99.90
41944;DHT22;27636;52.610;13.244;2023-07-22T23:41:14;17.00;99.90
41944;DHT22;27636;52.610;13.244;2023-07-22T23:46:20;17.20;99.90
41944;DHT22;27636;52.610;13.244;2023-07-22T23:51:23;17.00;99.90
41944;DHT22;27636;52.610;13.244;2023-07-22T23:56:28;17.00;99.90
